Leeswood, United Kingdom
Current Conditions -  °F | °C
As of 2:50 PM on Sunday 21 Dec 2014 (Local Time) from EGNR Reporting Station
Few Clouds Few Clouds  
Wind Chill: 54°   Ceiling: Unl
Heat Index: 54°   Visibility: 6mi
Dew Point: 48°   Wind: 28mph
Humidity: 82%   Direction: 240°WSW
Pressure: 30.06"   Gusts: 41mph
Location:  53.13°N, 3.09°W
Report Text: EGNR 211450Z 24024G36KT 9999 FEW020 12/09 Q1018
Loading
Personal Weather Stations






























Interactive Weather Map New forecast layout! Learn more

10-Day Weather Forecast

Advertisements
Track Severe Weather on mobile